No particular awareness of the weather is required.    There are no Weather-warnings


Nieuwrode (Holsbeek) more information Nieuwrode (Holsbeek)


Thunder radar more information blitzortung!


Rain radar more information rain snow radar



Nearby METAR Reports

  
EBBR - Brussels International Airport, Belgium
Distance from station: W 14km
Updated: 17-12-2018 13:20
Partly Cloudy
Partly Cloudy  
 Wind from WSW
Wind: WSW 22 km/h
Temperature:  8°C
Wind Chill:  4°C
Dew Point:  5°C
Humidity:  82%
Barometer:  1019 hPa
Clouds:  Partly Cloudy
Visibility:  10 km
Cloud details:  Few Clouds 579 m
Partly Cloudy 1341 m
2018/12/17 12:20 EBBR 171220Z 25012KT 9999 FEW019 SCT044 08/05 Q1019 NOSIG
EBBE - Beauvechain (Bevekom), Belgium
Distance from station: SSE 17km
Updated: 17-12-2018 13:24
Partly Cloudy
Partly Cloudy  
 Wind from WSW
Wind: WSW 19 km/h
Temperature:  8°C
Wind Chill:  4°C
Dew Point:  5°C
Humidity:  82%
Barometer:  1019 hPa
Clouds:  Partly Cloudy
Visibility:  10 km
Cloud details:  Few Clouds 396 m
Partly Cloudy 945 m
2018/12/17 12:24 EBBE 171224Z 24010KT 9999 FEW013 SCT031 08/05 Q1019 BLU BLU TEMPO GRN
EBDT - Schaffen, Belgium
Distance from station: ENE 29km
Updated: 17-12-2018 12:55
Mostly Cloudy
Mostly Cloudy  
 Wind from WSW
Wind: WSW 17 km/h
Temperature:  8°C
Wind Chill:  5°C
Dew Point:  5°C
Humidity:  82%
Barometer:  1019 hPa
Clouds:  Mostly Cloudy
Visibility:  10 km
Cloud details:  Few Clouds 396 m
Mostly Cloudy 1158 m
2018/12/17 11:55 EBDT 171155Z 24009KT 9999 FEW013 BKN038 08/05 Q1019 BLU BLU
EBAW - Antwerp/Deurne, Belgium
Distance from station: NNW 38km
Updated: 17-12-2018 13:20
Partly Cloudy
Partly Cloudy  
 Wind from WSW
Wind: WSW 22 km/h
Temperature:  9°C
Wind Chill:  6°C
Dew Point:  6°C
Humidity:  82%
Barometer:  1019 hPa
Clouds:  Partly Cloudy
Visibility:  10 km
Cloud details:  Partly Cloudy 488 m
Partly Cloudy 1494 m
2018/12/17 12:20 EBAW 171220Z 25012KT 220V280 9999 SCT016 SCT049 09/06 Q1019 NOSIG
EBCI - Charleroi/Gosselies, Belgium
Distance from station: SSW 51km
Updated: 17-12-2018 13:20
Mostly Cloudy
Mostly Cloudy  
 Wind from SW
Wind: SW 19 km/h
Temperature:  7°C
Wind Chill:  4°C
Dew Point:  5°C
Humidity:  87%
Barometer:  1020 hPa
Clouds:  Mostly Cloudy
Visibility:  10 km
Cloud details:  Partly Cloudy 274 m
Mostly Cloudy 457 m
2018/12/17 12:20 EBCI 171220Z 22010KT 9999 SCT009 BKN015 07/05 Q1020 TEMPO BKN012
EBLG - Bierset/Liege, Belgium
Distance from station: ESE 60km
Updated: 17-12-2018 13:20
Mostly Cloudy
Mostly Cloudy  
 Wind from WSW
Wind: WSW 24 km/h
Temperature:  7°C
Wind Chill:  3°C
Dew Point:  5°C
Humidity:  87%
Barometer:  1019 hPa
Clouds:  Mostly Cloudy
Visibility:  10 km
Cloud details:  Few Clouds 427 m
Partly Cloudy 518 m
Mostly Cloudy 1067 m
2018/12/17 12:20 EBLG 171220Z 24013KT 9999 FEW014 SCT017 BKN035 07/05 Q1019 NOSIG

Script developed by  Saratoga-weather.org Adapted for the template by  Weerstation Leuven

You find our weather info also at:


Het Weer Aktueel

European Weather Network

Weather Underground

AWEKAS

HAMweather, WeatherForYou, PWS Weather

Equipment we use:


Weather-station
Davis VP2 Plus

Weather-program
Weather Display

Davis VP2 Plus

Weather Display